sensor_id;sensor_type;location;lat;lon;timestamp;P1;durP1;ratioP1;P2;durP2;ratioP2
10920;SDS011;5513;50.580;8.818;2022-07-10T00:00:25;4.57;;;1.57;;
10920;SDS011;5513;50.580;8.818;2022-07-10T00:02:54;3.93;;;1.63;;
10920;SDS011;5513;50.580;8.818;2022-07-10T00:05:24;3.33;;;1.50;;
10920;SDS011;5513;50.580;8.818;2022-07-10T00:07:53;4.50;;;1.67;;
10920;SDS011;5513;50.580;8.818;2022-07-10T00:10:21;5.27;;;1.47;;
10920;SDS011;5513;50.580;8.818;2022-07-10T00:12:51;3.53;;;1.50;;
10920;SDS011;5513;50.580;8.818;2022-07-10T00:15:19;6.23;;;1.50;;
10920;SDS011;5513;50.580;8.818;2022-07-10T00:17:48;3.47;;;1.50;;
10920;SDS011;5513;50.580;8.818;2022-07-10T00:20:16;8.40;;;1.50;;
10920;SDS011;5513;50.580;8.818;2022-07-10T00:22:44;5.20;;;1.50;;
10920;SDS011;5513;50.580;8.818;2022-07-10T00:25:13;4.13;;;1.43;;
10920;SDS011;5513;50.580;8.818;2022-07-10T00:27:42;6.20;;;1.73;;
10920;SDS011;5513;50.580;8.818;2022-07-10T00:30:12;4.87;;;1.57;;
10920;SDS011;5513;50.580;8.818;2022-07-10T00:32:40;4.50;;;1.37;;
10920;SDS011;5513;50.580;8.818;2022-07-10T00:35:08;2.40;;;1.30;;
10920;SDS011;5513;50.580;8.818;2022-07-10T00:37:36;4.30;;;1.53;;
10920;SDS011;5513;50.580;8.818;2022-07-10T00:40:05;4.37;;;1.70;;
10920;SDS011;5513;50.580;8.818;2022-07-10T00:42:35;2.80;;;1.47;;
10920;SDS011;5513;50.580;8.818;2022-07-10T00:45:04;2.40;;;1.53;;
10920;SDS011;5513;50.580;8.818;2022-07-10T00:47:34;2.83;;;1.60;;
10920;SDS011;5513;50.580;8.818;2022-07-10T00:50:03;4.03;;;1.43;;
10920;SDS011;5513;50.580;8.818;2022-07-10T00:52:32;3.47;;;1.63;;
10920;SDS011;5513;50.580;8.818;2022-07-10T00:55:06;3.93;;;1.70;;
10920;SDS011;5513;50.580;8.818;2022-07-10T00:57:37;3.43;;;1.60;;
10920;SDS011;5513;50.580;8.818;2022-07-10T01:00:07;3.70;;;1.53;;
10920;SDS011;5513;50.580;8.818;2022-07-10T01:02:40;4.17;;;1.40;;
10920;SDS011;5513;50.580;8.818;2022-07-10T01:05:10;4.30;;;1.70;;
10920;SDS011;5513;50.580;8.818;2022-07-10T01:07:39;5.97;;;1.60;;
10920;SDS011;5513;50.580;8.818;2022-07-10T01:10:07;7.33;;;1.80;;
10920;SDS011;5513;50.580;8.818;2022-07-10T01:12:35;7.33;;;1.73;;
10920;SDS011;5513;50.580;8.818;2022-07-10T01:15:06;2.70;;;1.47;;
10920;SDS011;5513;50.580;8.818;2022-07-10T01:17:37;4.17;;;1.40;;
10920;SDS011;5513;50.580;8.818;2022-07-10T01:20:07;6.17;;;1.83;;
10920;SDS011;5513;50.580;8.818;2022-07-10T01:22:38;5.50;;;1.53;;
10920;SDS011;5513;50.580;8.818;2022-07-10T01:25:06;4.27;;;1.60;;
10920;SDS011;5513;50.580;8.818;2022-07-10T01:27:35;9.43;;;2.17;;
10920;SDS011;5513;50.580;8.818;2022-07-10T01:30:03;3.67;;;1.40;;
10920;SDS011;5513;50.580;8.818;2022-07-10T01:32:38;7.20;;;1.73;;
10920;SDS011;5513;50.580;8.818;2022-07-10T01:35:08;5.23;;;1.60;;
10920;SDS011;5513;50.580;8.818;2022-07-10T01:37:39;3.13;;;1.60;;
10920;SDS011;5513;50.580;8.818;2022-07-10T01:40:08;4.80;;;1.70;;
10920;SDS011;5513;50.580;8.818;2022-07-10T01:42:37;3.23;;;1.50;;
10920;SDS011;5513;50.580;8.818;2022-07-10T01:45:06;6.43;;;1.50;;
10920;SDS011;5513;50.580;8.818;2022-07-10T01:47:35;6.43;;;1.77;;
10920;SDS011;5513;50.580;8.818;2022-07-10T01:50:04;4.40;;;1.50;;
10920;SDS011;5513;50.580;8.818;2022-07-10T01:52:33;4.07;;;1.30;;
10920;SDS011;5513;50.580;8.818;2022-07-10T01:55:03;7.27;;;1.70;;
10920;SDS011;5513;50.580;8.818;2022-07-10T01:57:34;2.13;;;1.37;;
10920;SDS011;5513;50.580;8.818;2022-07-10T02:00:03;2.47;;;1.60;;
10920;SDS011;5513;50.580;8.818;2022-07-10T02:02:31;4.97;;;1.90;;
10920;SDS011;5513;50.580;8.818;2022-07-10T02:05:00;3.77;;;1.60;;
10920;SDS011;5513;50.580;8.818;2022-07-10T02:07:27;3.93;;;1.60;;
10920;SDS011;5513;50.580;8.818;2022-07-10T02:09:55;6.27;;;1.90;;
10920;SDS011;5513;50.580;8.818;2022-07-10T02:12:25;3.47;;;1.80;;
10920;SDS011;5513;50.580;8.818;2022-07-10T02:14:53;2.80;;;1.70;;
10920;SDS011;5513;50.580;8.818;2022-07-10T02:17:25;6.70;;;1.87;;
10920;SDS011;5513;50.580;8.818;2022-07-10T02:19:54;3.90;;;1.60;;
10920;SDS011;5513;50.580;8.818;2022-07-10T02:22:22;4.07;;;1.80;;
10920;SDS011;5513;50.580;8.818;2022-07-10T02:24:50;3.00;;;1.80;;
10920;SDS011;5513;50.580;8.818;2022-07-10T02:27:19;2.50;;;1.50;;
10920;SDS011;5513;50.580;8.818;2022-07-10T02:29:50;3.67;;;1.70;;
10920;SDS011;5513;50.580;8.818;2022-07-10T02:32:19;4.37;;;1.60;;
10920;SDS011;5513;50.580;8.818;2022-07-10T02:34:48;5.83;;;1.70;;
10920;SDS011;5513;50.580;8.818;2022-07-10T02:37:16;3.90;;;1.57;;
10920;SDS011;5513;50.580;8.818;2022-07-10T02:39:45;6.73;;;1.53;;
10920;SDS011;5513;50.580;8.818;2022-07-10T02:42:13;4.10;;;1.50;;
10920;SDS011;5513;50.580;8.818;2022-07-10T02:44:41;3.07;;;1.80;;
10920;SDS011;5513;50.580;8.818;2022-07-10T02:47:11;3.87;;;1.60;;
10920;SDS011;5513;50.580;8.818;2022-07-10T02:49:40;6.23;;;1.90;;
10920;SDS011;5513;50.580;8.818;2022-07-10T02:52:08;4.00;;;1.60;;
10920;SDS011;5513;50.580;8.818;2022-07-10T02:54:36;3.97;;;1.60;;
10920;SDS011;5513;50.580;8.818;2022-07-10T02:57:05;4.23;;;1.53;;
10920;SDS011;5513;50.580;8.818;2022-07-10T02:59:33;3.67;;;1.20;;
10920;SDS011;5513;50.580;8.818;2022-07-10T03:02:01;5.30;;;1.70;;
10920;SDS011;5513;50.580;8.818;2022-07-10T03:04:32;4.40;;;1.60;;
10920;SDS011;5513;50.580;8.818;2022-07-10T03:07:00;2.77;;;1.57;;
10920;SDS011;5513;50.580;8.818;2022-07-10T03:09:28;3.70;;;1.50;;
10920;SDS011;5513;50.580;8.818;2022-07-10T03:11:56;4.23;;;1.50;;
10920;SDS011;5513;50.580;8.818;2022-07-10T03:14:25;4.33;;;1.83;;
10920;SDS011;5513;50.580;8.818;2022-07-10T03:16:53;6.63;;;1.60;;
10920;SDS011;5513;50.580;8.818;2022-07-10T03:19:21;4.73;;;1.60;;
10920;SDS011;5513;50.580;8.818;2022-07-10T03:21:51;4.60;;;1.60;;
10920;SDS011;5513;50.580;8.818;2022-07-10T03:24:19;2.63;;;1.43;;
10920;SDS011;5513;50.580;8.818;2022-07-10T03:26:47;4.57;;;1.57;;
10920;SDS011;5513;50.580;8.818;2022-07-10T03:29:16;2.90;;;1.40;;
10920;SDS011;5513;50.580;8.818;2022-07-10T03:31:48;4.97;;;1.43;;
10920;SDS011;5513;50.580;8.818;2022-07-10T03:34:16;4.57;;;1.70;;
10920;SDS011;5513;50.580;8.818;2022-07-10T03:36:45;5.83;;;1.53;;
10920;SDS011;5513;50.580;8.818;2022-07-10T03:39:14;4.67;;;1.60;;
10920;SDS011;5513;50.580;8.818;2022-07-10T03:41:43;5.70;;;1.60;;
10920;SDS011;5513;50.580;8.818;2022-07-10T03:44:11;6.90;;;1.53;;
10920;SDS011;5513;50.580;8.818;2022-07-10T03:46:39;5.33;;;1.70;;
10920;SDS011;5513;50.580;8.818;2022-07-10T03:49:08;5.13;;;1.40;;
10920;SDS011;5513;50.580;8.818;2022-07-10T03:51:36;7.93;;;1.73;;
10920;SDS011;5513;50.580;8.818;2022-07-10T03:54:04;5.77;;;1.53;;
10920;SDS011;5513;50.580;8.818;2022-07-10T03:56:34;6.10;;;1.73;;
10920;SDS011;5513;50.580;8.818;2022-07-10T03:59:20;3.80;;;1.60;;
10920;SDS011;5513;50.580;8.818;2022-07-10T04:01:48;4.30;;;1.60;;
10920;SDS011;5513;50.580;8.818;2022-07-10T04:04:17;3.73;;;1.40;;
10920;SDS011;5513;50.580;8.818;2022-07-10T04:06:45;5.97;;;1.43;;
10920;SDS011;5513;50.580;8.818;2022-07-10T04:09:13;4.73;;;1.40;;
10920;SDS011;5513;50.580;8.818;2022-07-10T04:11:43;2.33;;;1.53;;
10920;SDS011;5513;50.580;8.818;2022-07-10T04:14:11;5.17;;;1.70;;
10920;SDS011;5513;50.580;8.818;2022-07-10T04:16:40;5.80;;;1.40;;
10920;SDS011;5513;50.580;8.818;2022-07-10T04:19:08;2.80;;;1.33;;
10920;SDS011;5513;50.580;8.818;2022-07-10T04:21:36;3.47;;;1.50;;
10920;SDS011;5513;50.580;8.818;2022-07-10T04:24:05;3.13;;;1.20;;
10920;SDS011;5513;50.580;8.818;2022-07-10T04:26:33;3.37;;;1.40;;
10920;SDS011;5513;50.580;8.818;2022-07-10T04:29:03;4.00;;;1.37;;
10920;SDS011;5513;50.580;8.818;2022-07-10T04:31:32;4.60;;;1.50;;
10920;SDS011;5513;50.580;8.818;2022-07-10T04:34:00;6.37;;;1.30;;
10920;SDS011;5513;50.580;8.818;2022-07-10T04:36:29;5.40;;;1.30;;
10920;SDS011;5513;50.580;8.818;2022-07-10T04:38:57;4.77;;;1.17;;
10920;SDS011;5513;50.580;8.818;2022-07-10T04:41:25;3.37;;;1.40;;
10920;SDS011;5513;50.580;8.818;2022-07-10T04:43:54;7.13;;;1.70;;
10920;SDS011;5513;50.580;8.818;2022-07-10T04:46:23;4.57;;;1.20;;
10920;SDS011;5513;50.580;8.818;2022-07-10T04:48:52;7.27;;;1.40;;
10920;SDS011;5513;50.580;8.818;2022-07-10T04:51:20;5.53;;;1.17;;
10920;SDS011;5513;50.580;8.818;2022-07-10T04:53:49;7.37;;;1.40;;
10920;SDS011;5513;50.580;8.818;2022-07-10T04:56:18;5.60;;;1.70;;
10920;SDS011;5513;50.580;8.818;2022-07-10T04:58:46;6.10;;;1.90;;
10920;SDS011;5513;50.580;8.818;2022-07-10T05:01:18;4.17;;;1.70;;
10920;SDS011;5513;50.580;8.818;2022-07-10T05:03:48;4.53;;;1.53;;
10920;SDS011;5513;50.580;8.818;2022-07-10T05:06:16;5.80;;;1.33;;
10920;SDS011;5513;50.580;8.818;2022-07-10T05:08:44;4.60;;;1.30;;
10920;SDS011;5513;50.580;8.818;2022-07-10T05:11:12;5.37;;;1.20;;
10920;SDS011;5513;50.580;8.818;2022-07-10T05:13:41;3.77;;;1.57;;
10920;SDS011;5513;50.580;8.818;2022-07-10T05:16:11;5.30;;;1.23;;
10920;SDS011;5513;50.580;8.818;2022-07-10T05:18:45;4.90;;;1.40;;
10920;SDS011;5513;50.580;8.818;2022-07-10T05:21:15;4.87;;;1.20;;
10920;SDS011;5513;50.580;8.818;2022-07-10T05:23:43;5.80;;;1.03;;
10920;SDS011;5513;50.580;8.818;2022-07-10T05:26:12;3.60;;;1.40;;
10920;SDS011;5513;50.580;8.818;2022-07-10T05:28:40;2.83;;;1.47;;
10920;SDS011;5513;50.580;8.818;2022-07-10T05:31:08;4.00;;;1.30;;
10920;SDS011;5513;50.580;8.818;2022-07-10T05:33:36;4.87;;;1.53;;
10920;SDS011;5513;50.580;8.818;2022-07-10T05:36:08;6.70;;;1.47;;
10920;SDS011;5513;50.580;8.818;2022-07-10T05:38:37;5.23;;;1.60;;
10920;SDS011;5513;50.580;8.818;2022-07-10T05:41:06;7.90;;;1.50;;
10920;SDS011;5513;50.580;8.818;2022-07-10T05:43:34;4.93;;;1.60;;
10920;SDS011;5513;50.580;8.818;2022-07-10T05:46:03;3.70;;;1.27;;
10920;SDS011;5513;50.580;8.818;2022-07-10T05:48:32;5.97;;;1.40;;
10920;SDS011;5513;50.580;8.818;2022-07-10T05:51:00;4.93;;;1.53;;
10920;SDS011;5513;50.580;8.818;2022-07-10T05:53:50;4.40;;;1.60;;
10920;SDS011;5513;50.580;8.818;2022-07-10T05:56:19;3.20;;;1.60;;
10920;SDS011;5513;50.580;8.818;2022-07-10T05:58:47;3.10;;;1.30;;
10920;SDS011;5513;50.580;8.818;2022-07-10T06:01:16;5.50;;;1.30;;
10920;SDS011;5513;50.580;8.818;2022-07-10T06:03:44;3.80;;;1.30;;
10920;SDS011;5513;50.580;8.818;2022-07-10T06:06:13;3.50;;;1.40;;
10920;SDS011;5513;50.580;8.818;2022-07-10T06:08:42;3.60;;;1.30;;
10920;SDS011;5513;50.580;8.818;2022-07-10T06:11:13;11.37;;;2.50;;
10920;SDS011;5513;50.580;8.818;2022-07-10T06:13:42;3.77;;;1.10;;
10920;SDS011;5513;50.580;8.818;2022-07-10T06:16:10;4.10;;;1.50;;
10920;SDS011;5513;50.580;8.818;2022-07-10T06:18:39;7.10;;;1.70;;
10920;SDS011;5513;50.580;8.818;2022-07-10T06:21:08;2.97;;;1.23;;
10920;SDS011;5513;50.580;8.818;2022-07-10T06:23:36;4.37;;;1.20;;
10920;SDS011;5513;50.580;8.818;2022-07-10T06:26:04;5.40;;;1.33;;
10920;SDS011;5513;50.580;8.818;2022-07-10T06:28:35;3.17;;;1.20;;
10920;SDS011;5513;50.580;8.818;2022-07-10T06:31:04;4.83;;;1.40;;
10920;SDS011;5513;50.580;8.818;2022-07-10T06:33:33;5.93;;;1.37;;
10920;SDS011;5513;50.580;8.818;2022-07-10T06:36:03;7.20;;;1.37;;
10920;SDS011;5513;50.580;8.818;2022-07-10T06:38:31;5.63;;;1.40;;
10920;SDS011;5513;50.580;8.818;2022-07-10T06:41:00;6.30;;;1.30;;
10920;SDS011;5513;50.580;8.818;2022-07-10T06:43:28;6.73;;;1.30;;
10920;SDS011;5513;50.580;8.818;2022-07-10T06:45:58;4.37;;;1.20;;
10920;SDS011;5513;50.580;8.818;2022-07-10T06:48:27;4.13;;;1.23;;
10920;SDS011;5513;50.580;8.818;2022-07-10T06:50:55;5.03;;;1.10;;
10920;SDS011;5513;50.580;8.818;2022-07-10T06:53:23;6.07;;;1.40;;
10920;SDS011;5513;50.580;8.818;2022-07-10T06:55:53;3.63;;;1.30;;
10920;SDS011;5513;50.580;8.818;2022-07-10T06:58:23;2.87;;;1.20;;
10920;SDS011;5513;50.580;8.818;2022-07-10T07:00:51;4.00;;;1.20;;
10920;SDS011;5513;50.580;8.818;2022-07-10T07:03:22;5.07;;;1.40;;
10920;SDS011;5513;50.580;8.818;2022-07-10T07:05:50;3.33;;;1.57;;
10920;SDS011;5513;50.580;8.818;2022-07-10T07:08:18;4.27;;;1.43;;
10920;SDS011;5513;50.580;8.818;2022-07-10T07:10:47;3.67;;;1.10;;
10920;SDS011;5513;50.580;8.818;2022-07-10T07:13:15;4.10;;;1.33;;
10920;SDS011;5513;50.580;8.818;2022-07-10T07:15:43;4.60;;;1.20;;
10920;SDS011;5513;50.580;8.818;2022-07-10T07:18:17;5.77;;;1.20;;
10920;SDS011;5513;50.580;8.818;2022-07-10T07:20:49;4.97;;;1.40;;
10920;SDS011;5513;50.580;8.818;2022-07-10T07:23:35;4.33;;;1.00;;
10920;SDS011;5513;50.580;8.818;2022-07-10T07:26:03;4.50;;;1.30;;
10920;SDS011;5513;50.580;8.818;2022-07-10T07:28:31;4.67;;;1.37;;
10920;SDS011;5513;50.580;8.818;2022-07-10T07:31:00;6.03;;;1.70;;
10920;SDS011;5513;50.580;8.818;2022-07-10T07:33:29;4.60;;;1.07;;
10920;SDS011;5513;50.580;8.818;2022-07-10T07:35:59;4.87;;;1.40;;
10920;SDS011;5513;50.580;8.818;2022-07-10T07:38:27;3.70;;;1.20;;
10920;SDS011;5513;50.580;8.818;2022-07-10T07:40:56;5.00;;;1.63;;
10920;SDS011;5513;50.580;8.818;2022-07-10T07:43:24;3.67;;;1.57;;
10920;SDS011;5513;50.580;8.818;2022-07-10T07:45:52;6.67;;;1.37;;
10920;SDS011;5513;50.580;8.818;2022-07-10T07:48:20;4.63;;;1.30;;
10920;SDS011;5513;50.580;8.818;2022-07-10T07:50:49;4.40;;;1.30;;
10920;SDS011;5513;50.580;8.818;2022-07-10T07:53:19;8.33;;;1.60;;
10920;SDS011;5513;50.580;8.818;2022-07-10T07:55:47;5.00;;;1.47;;
10920;SDS011;5513;50.580;8.818;2022-07-10T07:58:16;4.70;;;1.40;;
10920;SDS011;5513;50.580;8.818;2022-07-10T08:00:44;5.67;;;1.30;;
10920;SDS011;5513;50.580;8.818;2022-07-10T08:03:12;4.80;;;1.30;;
10920;SDS011;5513;50.580;8.818;2022-07-10T08:05:41;5.47;;;1.27;;
10920;SDS011;5513;50.580;8.818;2022-07-10T08:08:09;2.87;;;1.20;;
10920;SDS011;5513;50.580;8.818;2022-07-10T08:10:39;4.90;;;1.40;;
10920;SDS011;5513;50.580;8.818;2022-07-10T08:13:10;2.77;;;1.33;;
10920;SDS011;5513;50.580;8.818;2022-07-10T08:15:39;5.03;;;1.30;;
10920;SDS011;5513;50.580;8.818;2022-07-10T08:18:07;3.30;;;1.20;;
10920;SDS011;5513;50.580;8.818;2022-07-10T08:20:36;4.20;;;1.17;;
10920;SDS011;5513;50.580;8.818;2022-07-10T08:23:04;2.57;;;1.10;;
10920;SDS011;5513;50.580;8.818;2022-07-10T08:25:32;4.50;;;1.17;;
10920;SDS011;5513;50.580;8.818;2022-07-10T08:28:04;4.73;;;1.60;;
10920;SDS011;5513;50.580;8.818;2022-07-10T08:30:34;6.47;;;1.27;;
10920;SDS011;5513;50.580;8.818;2022-07-10T08:33:02;4.43;;;1.93;;
10920;SDS011;5513;50.580;8.818;2022-07-10T08:35:31;5.07;;;1.23;;
10920;SDS011;5513;50.580;8.818;2022-07-10T08:38:00;2.53;;;1.23;;
10920;SDS011;5513;50.580;8.818;2022-07-10T08:40:30;2.20;;;1.00;;
10920;SDS011;5513;50.580;8.818;2022-07-10T08:43:04;3.40;;;1.20;;
10920;SDS011;5513;50.580;8.818;2022-07-10T08:45:34;6.13;;;1.50;;
10920;SDS011;5513;50.580;8.818;2022-07-10T08:48:03;6.27;;;1.40;;
10920;SDS011;5513;50.580;8.818;2022-07-10T08:50:37;7.43;;;1.30;;
10920;SDS011;5513;50.580;8.818;2022-07-10T08:53:08;3.40;;;1.27;;
10920;SDS011;5513;50.580;8.818;2022-07-10T08:55:37;4.70;;;1.43;;
10920;SDS011;5513;50.580;8.818;2022-07-10T08:58:07;5.27;;;1.43;;
10920;SDS011;5513;50.580;8.818;2022-07-10T09:00:36;7.40;;;1.37;;
10920;SDS011;5513;50.580;8.818;2022-07-10T09:03:04;5.77;;;1.50;;
10920;SDS011;5513;50.580;8.818;2022-07-10T09:05:32;7.07;;;1.50;;
10920;SDS011;5513;50.580;8.818;2022-07-10T09:08:02;3.97;;;1.30;;
10920;SDS011;5513;50.580;8.818;2022-07-10T09:10:30;5.17;;;1.30;;
10920;SDS011;5513;50.580;8.818;2022-07-10T09:12:59;4.47;;;1.33;;
10920;SDS011;5513;50.580;8.818;2022-07-10T09:15:30;4.50;;;1.43;;
10920;SDS011;5513;50.580;8.818;2022-07-10T09:18:00;8.00;;;1.50;;
10920;SDS011;5513;50.580;8.818;2022-07-10T09:20:30;3.37;;;1.20;;
10920;SDS011;5513;50.580;8.818;2022-07-10T09:23:09;6.13;;;1.20;;
10920;SDS011;5513;50.580;8.818;2022-07-10T09:25:44;3.80;;;1.40;;
10920;SDS011;5513;50.580;8.818;2022-07-10T09:28:16;5.20;;;1.23;;
10920;SDS011;5513;50.580;8.818;2022-07-10T09:30:47;5.57;;;1.70;;
10920;SDS011;5513;50.580;8.818;2022-07-10T09:33:17;3.60;;;1.33;;
10920;SDS011;5513;50.580;8.818;2022-07-10T09:35:54;5.50;;;1.10;;
10920;SDS011;5513;50.580;8.818;2022-07-10T09:38:48;2.83;;;1.00;;
10920;SDS011;5513;50.580;8.818;2022-07-10T09:41:19;4.33;;;1.10;;
10920;SDS011;5513;50.580;8.818;2022-07-10T09:43:49;6.07;;;1.13;;
10920;SDS011;5513;50.580;8.818;2022-07-10T09:46:21;4.27;;;1.30;;
10920;SDS011;5513;50.580;8.818;2022-07-10T09:49:03;4.77;;;1.30;;
10920;SDS011;5513;50.580;8.818;2022-07-10T09:51:36;4.27;;;1.37;;
10920;SDS011;5513;50.580;8.818;2022-07-10T09:54:14;4.10;;;1.07;;
10920;SDS011;5513;50.580;8.818;2022-07-10T09:56:43;3.87;;;1.20;;
10920;SDS011;5513;50.580;8.818;2022-07-10T09:59:14;5.13;;;1.30;;
10920;SDS011;5513;50.580;8.818;2022-07-10T10:01:45;2.90;;;1.17;;
10920;SDS011;5513;50.580;8.818;2022-07-10T10:04:16;5.33;;;1.30;;
10920;SDS011;5513;50.580;8.818;2022-07-10T10:06:46;2.37;;;1.10;;
10920;SDS011;5513;50.580;8.818;2022-07-10T10:09:21;2.43;;;1.20;;
10920;SDS011;5513;50.580;8.818;2022-07-10T10:11:53;5.90;;;1.20;;
10920;SDS011;5513;50.580;8.818;2022-07-10T10:14:25;2.23;;;1.07;;
10920;SDS011;5513;50.580;8.818;2022-07-10T10:16:59;3.03;;;1.10;;
10920;SDS011;5513;50.580;8.818;2022-07-10T10:19:28;2.93;;;1.10;;
10920;SDS011;5513;50.580;8.818;2022-07-10T10:22:17;3.57;;;1.00;;
10920;SDS011;5513;50.580;8.818;2022-07-10T10:24:46;2.40;;;0.90;;
10920;SDS011;5513;50.580;8.818;2022-07-10T10:27:15;3.63;;;1.30;;
10920;SDS011;5513;50.580;8.818;2022-07-10T10:29:44;3.67;;;1.10;;
10920;SDS011;5513;50.580;8.818;2022-07-10T10:32:17;6.13;;;1.10;;
10920;SDS011;5513;50.580;8.818;2022-07-10T10:34:46;4.13;;;1.00;;
10920;SDS011;5513;50.580;8.818;2022-07-10T10:37:32;3.13;;;1.20;;
10920;SDS011;5513;50.580;8.818;2022-07-10T10:40:03;5.43;;;2.57;;
10920;SDS011;5513;50.580;8.818;2022-07-10T10:42:34;3.27;;;1.30;;
10920;SDS011;5513;50.580;8.818;2022-07-10T10:45:25;6.97;;;2.77;;
10920;SDS011;5513;50.580;8.818;2022-07-10T10:48:02;4.73;;;3.00;;
10920;SDS011;5513;50.580;8.818;2022-07-10T10:50:55;4.30;;;1.00;;
10920;SDS011;5513;50.580;8.818;2022-07-10T10:53:25;3.20;;;1.27;;
10920;SDS011;5513;50.580;8.818;2022-07-10T10:58:50;5.10;;;1.10;;
10920;SDS011;5513;50.580;8.818;2022-07-10T11:01:23;4.87;;;1.13;;
10920;SDS011;5513;50.580;8.818;2022-07-10T11:04:14;3.67;;;1.20;;
10920;SDS011;5513;50.580;8.818;2022-07-10T11:06:45;3.83;;;1.20;;
10920;SDS011;5513;50.580;8.818;2022-07-10T11:09:22;3.13;;;1.20;;
10920;SDS011;5513;50.580;8.818;2022-07-10T11:12:01;4.50;;;1.10;;
10920;SDS011;5513;50.580;8.818;2022-07-10T11:14:32;3.50;;;1.50;;
10920;SDS011;5513;50.580;8.818;2022-07-10T11:17:02;4.17;;;0.90;;
10920;SDS011;5513;50.580;8.818;2022-07-10T11:19:33;3.10;;;1.20;;
10920;SDS011;5513;50.580;8.818;2022-07-10T11:22:12;6.63;;;1.20;;
10920;SDS011;5513;50.580;8.818;2022-07-10T11:25:16;3.50;;;1.10;;
10920;SDS011;5513;50.580;8.818;2022-07-10T11:28:04;3.07;;;1.10;;
10920;SDS011;5513;50.580;8.818;2022-07-10T11:30:45;4.00;;;1.42;;
10920;SDS011;5513;50.580;8.818;2022-07-10T11:33:14;2.90;;;0.93;;
10920;SDS011;5513;50.580;8.818;2022-07-10T11:35:48;4.40;;;1.08;;
10920;SDS011;5513;50.580;8.818;2022-07-10T11:38:18;5.43;;;1.27;;
10920;SDS011;5513;50.580;8.818;2022-07-10T11:40:47;3.70;;;1.17;;
10920;SDS011;5513;50.580;8.818;2022-07-10T11:43:15;2.23;;;0.87;;
10920;SDS011;5513;50.580;8.818;2022-07-10T11:45:46;2.80;;;1.10;;
10920;SDS011;5513;50.580;8.818;2022-07-10T11:48:18;3.20;;;1.10;;
10920;SDS011;5513;50.580;8.818;2022-07-10T11:50:49;5.03;;;1.23;;
10920;SDS011;5513;50.580;8.818;2022-07-10T11:53:24;3.33;;;1.00;;
10920;SDS011;5513;50.580;8.818;2022-07-10T11:55:53;4.73;;;1.20;;
10920;SDS011;5513;50.580;8.818;2022-07-10T11:58:22;2.57;;;1.00;;
10920;SDS011;5513;50.580;8.818;2022-07-10T12:00:57;3.37;;;1.07;;
10920;SDS011;5513;50.580;8.818;2022-07-10T12:03:28;2.73;;;1.10;;
10920;SDS011;5513;50.580;8.818;2022-07-10T12:06:02;4.27;;;1.17;;
10920;SDS011;5513;50.580;8.818;2022-07-10T12:08:41;5.15;;;1.08;;
10920;SDS011;5513;50.580;8.818;2022-07-10T12:11:11;3.17;;;0.90;;
10920;SDS011;5513;50.580;8.818;2022-07-10T12:13:40;3.03;;;0.73;;
10920;SDS011;5513;50.580;8.818;2022-07-10T12:16:08;2.37;;;0.90;;
10920;SDS011;5513;50.580;8.818;2022-07-10T12:18:37;3.97;;;1.07;;
10920;SDS011;5513;50.580;8.818;2022-07-10T12:21:11;4.10;;;1.00;;
10920;SDS011;5513;50.580;8.818;2022-07-10T12:23:40;3.63;;;1.00;;
10920;SDS011;5513;50.580;8.818;2022-07-10T12:26:12;3.00;;;1.00;;
10920;SDS011;5513;50.580;8.818;2022-07-10T12:28:52;3.60;;;1.10;;
10920;SDS011;5513;50.580;8.818;2022-07-10T12:31:22;1.73;;;0.87;;
10920;SDS011;5513;50.580;8.818;2022-07-10T12:33:52;2.03;;;1.00;;
10920;SDS011;5513;50.580;8.818;2022-07-10T12:36:26;3.77;;;1.20;;
10920;SDS011;5513;50.580;8.818;2022-07-10T12:38:55;1.73;;;0.73;;
10920;SDS011;5513;50.580;8.818;2022-07-10T12:41:25;2.10;;;0.77;;
10920;SDS011;5513;50.580;8.818;2022-07-10T12:43:54;2.33;;;1.03;;
10920;SDS011;5513;50.580;8.818;2022-07-10T12:46:22;2.97;;;0.80;;
10920;SDS011;5513;50.580;8.818;2022-07-10T12:49:01;2.70;;;1.07;;
10920;SDS011;5513;50.580;8.818;2022-07-10T12:51:34;3.30;;;1.00;;
10920;SDS011;5513;50.580;8.818;2022-07-10T12:54:31;4.30;;;1.00;;
10920;SDS011;5513;50.580;8.818;2022-07-10T12:57:01;4.07;;;1.07;;
10920;SDS011;5513;50.580;8.818;2022-07-10T12:59:32;2.83;;;1.10;;
10920;SDS011;5513;50.580;8.818;2022-07-10T13:02:15;1.73;;;1.07;;
10920;SDS011;5513;50.580;8.818;2022-07-10T13:04:51;3.17;;;0.97;;
10920;SDS011;5513;50.580;8.818;2022-07-10T13:07:30;2.03;;;0.80;;
10920;SDS011;5513;50.580;8.818;2022-07-10T13:09:59;2.73;;;0.97;;
10920;SDS011;5513;50.580;8.818;2022-07-10T13:12:30;2.00;;;0.80;;
10920;SDS011;5513;50.580;8.818;2022-07-10T13:14:59;4.10;;;0.90;;
10920;SDS011;5513;50.580;8.818;2022-07-10T13:17:27;2.87;;;1.00;;
10920;SDS011;5513;50.580;8.818;2022-07-10T13:19:55;3.77;;;1.00;;
10920;SDS011;5513;50.580;8.818;2022-07-10T13:22:24;2.90;;;1.10;;
10920;SDS011;5513;50.580;8.818;2022-07-10T13:24:54;1.73;;;0.80;;
10920;SDS011;5513;50.580;8.818;2022-07-10T13:27:22;3.13;;;0.80;;
10920;SDS011;5513;50.580;8.818;2022-07-10T13:29:50;2.50;;;0.93;;
10920;SDS011;5513;50.580;8.818;2022-07-10T13:32:18;3.23;;;1.13;;
10920;SDS011;5513;50.580;8.818;2022-07-10T13:34:53;2.80;;;0.80;;
10920;SDS011;5513;50.580;8.818;2022-07-10T13:37:21;3.77;;;1.00;;
10920;SDS011;5513;50.580;8.818;2022-07-10T13:39:49;2.17;;;1.00;;
10920;SDS011;5513;50.580;8.818;2022-07-10T13:42:19;2.67;;;1.20;;
10920;SDS011;5513;50.580;8.818;2022-07-10T13:44:48;1.87;;;0.90;;
10920;SDS011;5513;50.580;8.818;2022-07-10T13:47:16;3.37;;;1.00;;
10920;SDS011;5513;50.580;8.818;2022-07-10T13:49:45;2.47;;;1.20;;
10920;SDS011;5513;50.580;8.818;2022-07-10T13:52:13;4.70;;;1.10;;
10920;SDS011;5513;50.580;8.818;2022-07-10T13:54:41;3.30;;;0.80;;
10920;SDS011;5513;50.580;8.818;2022-07-10T13:57:10;4.33;;;0.97;;
10920;SDS011;5513;50.580;8.818;2022-07-10T13:59:39;2.07;;;0.87;;
10920;SDS011;5513;50.580;8.818;2022-07-10T14:02:08;5.17;;;1.10;;
10920;SDS011;5513;50.580;8.818;2022-07-10T14:04:42;4.07;;;1.23;;
10920;SDS011;5513;50.580;8.818;2022-07-10T14:07:10;2.57;;;0.90;;
10920;SDS011;5513;50.580;8.818;2022-07-10T14:09:38;1.73;;;1.10;;
10920;SDS011;5513;50.580;8.818;2022-07-10T14:12:06;2.37;;;0.90;;
10920;SDS011;5513;50.580;8.818;2022-07-10T14:14:35;1.60;;;0.80;;
10920;SDS011;5513;50.580;8.818;2022-07-10T14:17:05;2.57;;;0.80;;
10920;SDS011;5513;50.580;8.818;2022-07-10T14:19:33;3.00;;;1.07;;
10920;SDS011;5513;50.580;8.818;2022-07-10T14:22:03;2.07;;;0.90;;
10920;SDS011;5513;50.580;8.818;2022-07-10T14:24:32;4.00;;;1.10;;
10920;SDS011;5513;50.580;8.818;2022-07-10T14:27:05;2.43;;;1.10;;
10920;SDS011;5513;50.580;8.818;2022-07-10T14:29:33;2.47;;;1.00;;
10920;SDS011;5513;50.580;8.818;2022-07-10T14:32:02;1.90;;;0.90;;
10920;SDS011;5513;50.580;8.818;2022-07-10T14:34:32;4.80;;;1.10;;
10920;SDS011;5513;50.580;8.818;2022-07-10T14:37:00;1.97;;;0.70;;
10920;SDS011;5513;50.580;8.818;2022-07-10T14:39:29;1.23;;;0.60;;
10920;SDS011;5513;50.580;8.818;2022-07-10T14:41:57;2.63;;;0.90;;
10920;SDS011;5513;50.580;8.818;2022-07-10T14:44:25;1.50;;;0.70;;
10920;SDS011;5513;50.580;8.818;2022-07-10T14:46:54;2.77;;;0.90;;
10920;SDS011;5513;50.580;8.818;2022-07-10T14:49:22;2.50;;;0.90;;
10920;SDS011;5513;50.580;8.818;2022-07-10T14:51:52;3.37;;;0.90;;
10920;SDS011;5513;50.580;8.818;2022-07-10T14:54:21;1.53;;;0.90;;
10920;SDS011;5513;50.580;8.818;2022-07-10T14:56:49;1.10;;;0.73;;
10920;SDS011;5513;50.580;8.818;2022-07-10T14:59:17;3.10;;;0.90;;
10920;SDS011;5513;50.580;8.818;2022-07-10T15:01:46;2.10;;;0.70;;
10920;SDS011;5513;50.580;8.818;2022-07-10T15:04:16;1.27;;;0.73;;
10920;SDS011;5513;50.580;8.818;2022-07-10T15:06:44;1.97;;;0.70;;
10920;SDS011;5513;50.580;8.818;2022-07-10T15:09:15;1.90;;;0.60;;
10920;SDS011;5513;50.580;8.818;2022-07-10T15:11:43;1.60;;;0.60;;
10920;SDS011;5513;50.580;8.818;2022-07-10T15:14:11;1.13;;;0.80;;
10920;SDS011;5513;50.580;8.818;2022-07-10T15:16:39;1.10;;;0.50;;
10920;SDS011;5513;50.580;8.818;2022-07-10T15:19:08;0.50;;;0.40;;
10920;SDS011;5513;50.580;8.818;2022-07-10T15:21:37;0.73;;;0.50;;